sensor_id;sensor_type;location;lat;lon;timestamp;P1;durP1;ratioP1;P2;durP2;ratioP2
31676;SDS011;18385;51.572;6.578;2022-11-20T00:01:17;14.23;;;5.97;;
31676;SDS011;18385;51.572;6.578;2022-11-20T00:03:47;13.13;;;5.53;;
31676;SDS011;18385;51.572;6.578;2022-11-20T00:06:17;13.57;;;6.03;;
31676;SDS011;18385;51.572;6.578;2022-11-20T00:08:44;12.25;;;5.75;;
31676;SDS011;18385;51.572;6.578;2022-11-20T00:13:41;13.90;;;6.15;;
31676;SDS011;18385;51.572;6.578;2022-11-20T00:16:08;14.50;;;6.43;;
31676;SDS011;18385;51.572;6.578;2022-11-20T00:18:35;13.32;;;5.80;;
31676;SDS011;18385;51.572;6.578;2022-11-20T00:21:05;13.85;;;5.32;;
31676;SDS011;18385;51.572;6.578;2022-11-20T00:23:32;13.18;;;5.93;;
31676;SDS011;18385;51.572;6.578;2022-11-20T00:26:05;11.82;;;5.18;;
31676;SDS011;18385;51.572;6.578;2022-11-20T00:28:32;14.40;;;6.20;;
31676;SDS011;18385;51.572;6.578;2022-11-20T00:31:09;13.95;;;6.70;;
31676;SDS011;18385;51.572;6.578;2022-11-20T00:33:39;19.35;;;7.10;;
31676;SDS011;18385;51.572;6.578;2022-11-20T00:38:33;15.57;;;6.88;;
31676;SDS011;18385;51.572;6.578;2022-11-20T00:40:59;13.27;;;7.15;;
31676;SDS011;18385;51.572;6.578;2022-11-20T00:43:26;11.65;;;6.30;;
31676;SDS011;18385;51.572;6.578;2022-11-20T00:45:59;13.02;;;5.85;;
31676;SDS011;18385;51.572;6.578;2022-11-20T00:48:27;13.15;;;6.70;;
31676;SDS011;18385;51.572;6.578;2022-11-20T00:50:53;14.63;;;6.65;;
31676;SDS011;18385;51.572;6.578;2022-11-20T00:53:19;15.55;;;6.75;;
31676;SDS011;18385;51.572;6.578;2022-11-20T00:56:04;16.70;;;6.75;;
31676;SDS011;18385;51.572;6.578;2022-11-20T00:58:33;17.75;;;7.72;;
31676;SDS011;18385;51.572;6.578;2022-11-20T01:01:00;12.27;;;6.05;;
31676;SDS011;18385;51.572;6.578;2022-11-20T01:03:27;12.88;;;6.60;;
31676;SDS011;18385;51.572;6.578;2022-11-20T01:05:58;14.18;;;6.57;;
31676;SDS011;18385;51.572;6.578;2022-11-20T01:08:28;17.50;;;7.22;;
31676;SDS011;18385;51.572;6.578;2022-11-20T01:10:58;16.83;;;7.25;;
31676;SDS011;18385;51.572;6.578;2022-11-20T01:13:28;16.27;;;7.10;;
31676;SDS011;18385;51.572;6.578;2022-11-20T01:18:34;16.10;;;7.47;;
31676;SDS011;18385;51.572;6.578;2022-11-20T01:21:04;14.10;;;6.15;;
31676;SDS011;18385;51.572;6.578;2022-11-20T01:23:32;15.27;;;6.97;;
31676;SDS011;18385;51.572;6.578;2022-11-20T01:26:00;15.60;;;6.97;;
31676;SDS011;18385;51.572;6.578;2022-11-20T01:28:28;15.73;;;7.03;;
31676;SDS011;18385;51.572;6.578;2022-11-20T01:30:54;15.95;;;7.28;;
31676;SDS011;18385;51.572;6.578;2022-11-20T01:33:19;15.00;;;6.82;;
31676;SDS011;18385;51.572;6.578;2022-11-20T01:35:45;15.25;;;6.30;;
31676;SDS011;18385;51.572;6.578;2022-11-20T01:38:10;16.98;;;7.07;;
31676;SDS011;18385;51.572;6.578;2022-11-20T01:40:36;13.77;;;6.97;;
31676;SDS011;18385;51.572;6.578;2022-11-20T01:43:17;14.55;;;6.97;;
31676;SDS011;18385;51.572;6.578;2022-11-20T01:45:51;16.52;;;6.85;;
31676;SDS011;18385;51.572;6.578;2022-11-20T01:48:19;19.10;;;7.10;;
31676;SDS011;18385;51.572;6.578;2022-11-20T01:50:48;14.87;;;7.03;;
31676;SDS011;18385;51.572;6.578;2022-11-20T01:53:16;15.70;;;7.18;;
31676;SDS011;18385;51.572;6.578;2022-11-20T01:55:50;17.67;;;7.78;;
31676;SDS011;18385;51.572;6.578;2022-11-20T01:58:19;15.70;;;7.15;;
31676;SDS011;18385;51.572;6.578;2022-11-20T02:00:47;14.35;;;6.38;;
31676;SDS011;18385;51.572;6.578;2022-11-20T02:03:15;16.48;;;7.22;;
31676;SDS011;18385;51.572;6.578;2022-11-20T02:05:59;16.88;;;6.78;;
31676;SDS011;18385;51.572;6.578;2022-11-20T02:08:46;17.15;;;7.75;;
31676;SDS011;18385;51.572;6.578;2022-11-20T02:11:11;16.33;;;7.78;;
31676;SDS011;18385;51.572;6.578;2022-11-20T02:13:38;14.15;;;7.45;;
31676;SDS011;18385;51.572;6.578;2022-11-20T02:16:11;17.92;;;7.53;;
31676;SDS011;18385;51.572;6.578;2022-11-20T02:18:41;13.30;;;6.38;;
31676;SDS011;18385;51.572;6.578;2022-11-20T02:24:14;17.80;;;7.30;;
31676;SDS011;18385;51.572;6.578;2022-11-20T02:29:23;17.00;;;7.20;;
31676;SDS011;18385;51.572;6.578;2022-11-20T02:32:01;17.67;;;7.60;;
31676;SDS011;18385;51.572;6.578;2022-11-20T02:34:27;17.48;;;6.95;;
31676;SDS011;18385;51.572;6.578;2022-11-20T02:36:53;16.77;;;6.88;;
31676;SDS011;18385;51.572;6.578;2022-11-20T02:39:20;16.63;;;6.78;;
31676;SDS011;18385;51.572;6.578;2022-11-20T02:41:47;16.63;;;7.10;;
31676;SDS011;18385;51.572;6.578;2022-11-20T02:44:12;16.55;;;6.75;;
31676;SDS011;18385;51.572;6.578;2022-11-20T02:46:38;16.30;;;7.68;;
31676;SDS011;18385;51.572;6.578;2022-11-20T02:49:04;14.80;;;7.28;;
31676;SDS011;18385;51.572;6.578;2022-11-20T02:51:30;16.20;;;6.78;;
31676;SDS011;18385;51.572;6.578;2022-11-20T02:53:57;15.45;;;6.82;;
31676;SDS011;18385;51.572;6.578;2022-11-20T02:56:23;15.82;;;7.20;;
31676;SDS011;18385;51.572;6.578;2022-11-20T02:58:49;14.77;;;6.93;;
31676;SDS011;18385;51.572;6.578;2022-11-20T03:01:15;15.25;;;7.15;;
31676;SDS011;18385;51.572;6.578;2022-11-20T03:03:40;15.98;;;7.50;;
31676;SDS011;18385;51.572;6.578;2022-11-20T03:06:06;16.70;;;7.45;;
31676;SDS011;18385;51.572;6.578;2022-11-20T03:08:32;16.05;;;7.47;;
31676;SDS011;18385;51.572;6.578;2022-11-20T03:11:02;17.67;;;7.45;;
31676;SDS011;18385;51.572;6.578;2022-11-20T03:13:30;17.35;;;7.50;;
31676;SDS011;18385;51.572;6.578;2022-11-20T03:15:55;14.75;;;7.03;;
31676;SDS011;18385;51.572;6.578;2022-11-20T03:18:21;18.90;;;7.72;;
31676;SDS011;18385;51.572;6.578;2022-11-20T03:20:47;14.80;;;6.90;;
31676;SDS011;18385;51.572;6.578;2022-11-20T03:23:12;17.05;;;7.25;;
31676;SDS011;18385;51.572;6.578;2022-11-20T03:25:38;16.77;;;7.55;;
31676;SDS011;18385;51.572;6.578;2022-11-20T03:28:04;19.73;;;8.20;;
31676;SDS011;18385;51.572;6.578;2022-11-20T03:30:29;17.42;;;8.15;;
31676;SDS011;18385;51.572;6.578;2022-11-20T03:32:55;16.80;;;8.15;;
31676;SDS011;18385;51.572;6.578;2022-11-20T03:35:20;15.48;;;6.88;;
31676;SDS011;18385;51.572;6.578;2022-11-20T03:37:46;15.52;;;7.55;;
31676;SDS011;18385;51.572;6.578;2022-11-20T03:40:12;19.80;;;8.00;;
31676;SDS011;18385;51.572;6.578;2022-11-20T03:42:38;16.17;;;7.28;;
31676;SDS011;18385;51.572;6.578;2022-11-20T03:45:13;17.63;;;7.97;;
31676;SDS011;18385;51.572;6.578;2022-11-20T03:47:43;16.42;;;7.15;;
31676;SDS011;18385;51.572;6.578;2022-11-20T03:50:10;15.98;;;7.68;;
31676;SDS011;18385;51.572;6.578;2022-11-20T03:52:38;18.97;;;8.77;;
31676;SDS011;18385;51.572;6.578;2022-11-20T03:55:04;19.63;;;8.40;;
31676;SDS011;18385;51.572;6.578;2022-11-20T03:57:31;17.33;;;8.27;;
31676;SDS011;18385;51.572;6.578;2022-11-20T03:59:56;17.42;;;7.95;;
31676;SDS011;18385;51.572;6.578;2022-11-20T04:02:22;16.83;;;7.72;;
31676;SDS011;18385;51.572;6.578;2022-11-20T04:04:47;16.20;;;7.43;;
31676;SDS011;18385;51.572;6.578;2022-11-20T04:07:13;15.70;;;7.63;;
31676;SDS011;18385;51.572;6.578;2022-11-20T04:09:39;16.77;;;7.65;;
31676;SDS011;18385;51.572;6.578;2022-11-20T04:12:04;16.58;;;6.80;;
31676;SDS011;18385;51.572;6.578;2022-11-20T04:14:30;17.90;;;8.35;;
31676;SDS011;18385;51.572;6.578;2022-11-20T04:16:56;17.98;;;8.85;;
31676;SDS011;18385;51.572;6.578;2022-11-20T04:19:22;13.32;;;6.68;;
31676;SDS011;18385;51.572;6.578;2022-11-20T04:21:47;15.57;;;7.38;;
31676;SDS011;18385;51.572;6.578;2022-11-20T04:24:13;19.23;;;8.30;;
31676;SDS011;18385;51.572;6.578;2022-11-20T04:26:39;20.42;;;8.27;;
31676;SDS011;18385;51.572;6.578;2022-11-20T04:29:05;16.23;;;7.10;;
31676;SDS011;18385;51.572;6.578;2022-11-20T04:31:32;20.05;;;8.13;;
31676;SDS011;18385;51.572;6.578;2022-11-20T04:34:00;12.88;;;6.72;;
31676;SDS011;18385;51.572;6.578;2022-11-20T04:36:27;16.02;;;7.28;;
31676;SDS011;18385;51.572;6.578;2022-11-20T04:38:54;17.90;;;7.60;;
31676;SDS011;18385;51.572;6.578;2022-11-20T04:41:21;16.35;;;7.05;;
31676;SDS011;18385;51.572;6.578;2022-11-20T04:43:52;13.52;;;6.85;;
31676;SDS011;18385;51.572;6.578;2022-11-20T04:46:24;16.10;;;7.60;;
31676;SDS011;18385;51.572;6.578;2022-11-20T04:48:51;17.02;;;7.40;;
31676;SDS011;18385;51.572;6.578;2022-11-20T04:51:16;15.38;;;6.78;;
31676;SDS011;18385;51.572;6.578;2022-11-20T04:53:42;17.08;;;7.22;;
31676;SDS011;18385;51.572;6.578;2022-11-20T04:56:08;14.82;;;6.97;;
31676;SDS011;18385;51.572;6.578;2022-11-20T04:58:36;15.10;;;7.32;;
31676;SDS011;18385;51.572;6.578;2022-11-20T05:01:06;16.75;;;7.85;;
31676;SDS011;18385;51.572;6.578;2022-11-20T05:03:37;16.25;;;7.50;;
31676;SDS011;18385;51.572;6.578;2022-11-20T05:06:03;18.02;;;8.13;;
31676;SDS011;18385;51.572;6.578;2022-11-20T05:08:30;16.13;;;7.63;;
31676;SDS011;18385;51.572;6.578;2022-11-20T05:13:35;18.60;;;8.40;;
31676;SDS011;18385;51.572;6.578;2022-11-20T05:16:02;16.67;;;7.65;;
31676;SDS011;18385;51.572;6.578;2022-11-20T05:18:28;15.77;;;7.57;;
31676;SDS011;18385;51.572;6.578;2022-11-20T05:20:55;15.02;;;7.28;;
31676;SDS011;18385;51.572;6.578;2022-11-20T05:23:21;16.20;;;8.10;;
31676;SDS011;18385;51.572;6.578;2022-11-20T05:25:47;20.15;;;7.65;;
31676;SDS011;18385;51.572;6.578;2022-11-20T05:28:12;16.65;;;7.57;;
31676;SDS011;18385;51.572;6.578;2022-11-20T05:30:39;18.95;;;8.30;;
31676;SDS011;18385;51.572;6.578;2022-11-20T05:33:04;16.92;;;7.85;;
31676;SDS011;18385;51.572;6.578;2022-11-20T05:35:30;18.73;;;9.18;;
31676;SDS011;18385;51.572;6.578;2022-11-20T05:37:55;16.15;;;8.32;;
31676;SDS011;18385;51.572;6.578;2022-11-20T05:40:21;17.65;;;7.88;;
31676;SDS011;18385;51.572;6.578;2022-11-20T05:42:46;18.83;;;7.93;;
31676;SDS011;18385;51.572;6.578;2022-11-20T05:45:12;15.13;;;7.18;;
31676;SDS011;18385;51.572;6.578;2022-11-20T05:47:38;15.75;;;7.10;;
31676;SDS011;18385;51.572;6.578;2022-11-20T05:50:03;18.27;;;8.35;;
31676;SDS011;18385;51.572;6.578;2022-11-20T05:52:30;17.23;;;7.13;;
31676;SDS011;18385;51.572;6.578;2022-11-20T05:54:56;16.77;;;7.72;;
31676;SDS011;18385;51.572;6.578;2022-11-20T05:57:21;18.05;;;8.30;;
31676;SDS011;18385;51.572;6.578;2022-11-20T05:59:47;18.17;;;8.07;;
31676;SDS011;18385;51.572;6.578;2022-11-20T06:02:13;17.13;;;7.40;;
31676;SDS011;18385;51.572;6.578;2022-11-20T06:04:38;14.95;;;8.00;;
31676;SDS011;18385;51.572;6.578;2022-11-20T06:07:04;17.85;;;7.93;;
31676;SDS011;18385;51.572;6.578;2022-11-20T06:09:31;18.52;;;8.15;;
31676;SDS011;18385;51.572;6.578;2022-11-20T06:11:57;15.60;;;7.43;;
31676;SDS011;18385;51.572;6.578;2022-11-20T06:14:22;18.05;;;8.48;;
31676;SDS011;18385;51.572;6.578;2022-11-20T06:16:48;17.00;;;7.25;;
31676;SDS011;18385;51.572;6.578;2022-11-20T06:19:14;19.52;;;8.40;;
31676;SDS011;18385;51.572;6.578;2022-11-20T06:21:40;15.43;;;8.00;;
31676;SDS011;18385;51.572;6.578;2022-11-20T06:24:06;16.92;;;7.75;;
31676;SDS011;18385;51.572;6.578;2022-11-20T06:26:33;20.27;;;8.15;;
31676;SDS011;18385;51.572;6.578;2022-11-20T06:28:59;15.95;;;8.00;;
31676;SDS011;18385;51.572;6.578;2022-11-20T06:31:25;19.25;;;8.10;;
31676;SDS011;18385;51.572;6.578;2022-11-20T06:33:51;16.33;;;7.60;;
31676;SDS011;18385;51.572;6.578;2022-11-20T06:36:18;14.93;;;7.22;;
31676;SDS011;18385;51.572;6.578;2022-11-20T06:38:44;16.38;;;7.53;;
31676;SDS011;18385;51.572;6.578;2022-11-20T06:41:11;17.15;;;7.32;;
31676;SDS011;18385;51.572;6.578;2022-11-20T06:43:39;15.43;;;7.25;;
31676;SDS011;18385;51.572;6.578;2022-11-20T06:46:05;18.13;;;8.27;;
31676;SDS011;18385;51.572;6.578;2022-11-20T06:48:31;21.58;;;9.30;;
31676;SDS011;18385;51.572;6.578;2022-11-20T06:50:57;66.25;;;24.95;;
31676;SDS011;18385;51.572;6.578;2022-11-20T06:53:23;54.80;;;20.35;;
31676;SDS011;18385;51.572;6.578;2022-11-20T06:55:50;56.30;;;21.88;;
31676;SDS011;18385;51.572;6.578;2022-11-20T06:58:16;21.05;;;10.70;;
31676;SDS011;18385;51.572;6.578;2022-11-20T07:00:43;19.20;;;9.88;;
31676;SDS011;18385;51.572;6.578;2022-11-20T07:03:09;20.60;;;9.60;;
31676;SDS011;18385;51.572;6.578;2022-11-20T07:05:36;20.77;;;9.93;;
31676;SDS011;18385;51.572;6.578;2022-11-20T07:08:02;20.63;;;8.80;;
31676;SDS011;18385;51.572;6.578;2022-11-20T07:10:28;19.75;;;8.15;;
31676;SDS011;18385;51.572;6.578;2022-11-20T07:12:54;14.20;;;7.38;;
31676;SDS011;18385;51.572;6.578;2022-11-20T07:15:20;17.75;;;8.88;;
31676;SDS011;18385;51.572;6.578;2022-11-20T07:17:47;19.27;;;9.40;;
31676;SDS011;18385;51.572;6.578;2022-11-20T07:20:13;19.45;;;7.70;;
31676;SDS011;18385;51.572;6.578;2022-11-20T07:22:39;17.55;;;8.35;;
31676;SDS011;18385;51.572;6.578;2022-11-20T07:25:05;16.52;;;7.70;;
31676;SDS011;18385;51.572;6.578;2022-11-20T07:27:32;17.15;;;7.72;;
31676;SDS011;18385;51.572;6.578;2022-11-20T07:29:57;17.40;;;8.00;;
31676;SDS011;18385;51.572;6.578;2022-11-20T07:32:23;18.90;;;7.90;;
31676;SDS011;18385;51.572;6.578;2022-11-20T07:34:49;18.20;;;8.15;;
31676;SDS011;18385;51.572;6.578;2022-11-20T07:37:15;17.42;;;8.98;;
31676;SDS011;18385;51.572;6.578;2022-11-20T07:39:41;14.35;;;7.43;;
31676;SDS011;18385;51.572;6.578;2022-11-20T07:42:07;16.83;;;8.38;;
31676;SDS011;18385;51.572;6.578;2022-11-20T07:44:36;18.77;;;7.82;;
31676;SDS011;18385;51.572;6.578;2022-11-20T07:47:01;18.10;;;7.68;;
31676;SDS011;18385;51.572;6.578;2022-11-20T07:49:27;15.68;;;8.27;;
31676;SDS011;18385;51.572;6.578;2022-11-20T07:51:53;17.02;;;8.13;;
31676;SDS011;18385;51.572;6.578;2022-11-20T07:54:19;19.00;;;8.38;;
31676;SDS011;18385;51.572;6.578;2022-11-20T07:56:45;16.38;;;7.63;;
31676;SDS011;18385;51.572;6.578;2022-11-20T07:59:11;16.63;;;8.30;;
31676;SDS011;18385;51.572;6.578;2022-11-20T08:01:40;33.45;;;10.80;;
31676;SDS011;18385;51.572;6.578;2022-11-20T08:04:06;20.60;;;9.75;;
31676;SDS011;18385;51.572;6.578;2022-11-20T08:06:32;32.55;;;10.52;;
31676;SDS011;18385;51.572;6.578;2022-11-20T08:08:58;31.23;;;11.88;;
31676;SDS011;18385;51.572;6.578;2022-11-20T08:11:23;33.83;;;10.65;;
31676;SDS011;18385;51.572;6.578;2022-11-20T08:14:07;29.02;;;10.73;;
31676;SDS011;18385;51.572;6.578;2022-11-20T08:16:44;31.27;;;12.95;;
31676;SDS011;18385;51.572;6.578;2022-11-20T08:19:12;26.17;;;11.05;;
31676;SDS011;18385;51.572;6.578;2022-11-20T08:21:39;26.77;;;11.13;;
31676;SDS011;18385;51.572;6.578;2022-11-20T08:24:05;23.08;;;10.20;;
31676;SDS011;18385;51.572;6.578;2022-11-20T08:26:32;22.08;;;10.55;;
31676;SDS011;18385;51.572;6.578;2022-11-20T08:28:58;25.67;;;11.30;;
31676;SDS011;18385;51.572;6.578;2022-11-20T08:31:24;30.90;;;12.23;;
31676;SDS011;18385;51.572;6.578;2022-11-20T08:33:51;23.80;;;10.80;;
31676;SDS011;18385;51.572;6.578;2022-11-20T08:36:17;29.10;;;12.05;;
31676;SDS011;18385;51.572;6.578;2022-11-20T08:38:47;30.88;;;13.93;;
31676;SDS011;18385;51.572;6.578;2022-11-20T08:43:56;27.05;;;11.82;;
31676;SDS011;18385;51.572;6.578;2022-11-20T08:46:25;23.92;;;10.85;;
31676;SDS011;18385;51.572;6.578;2022-11-20T08:48:51;28.90;;;13.20;;
31676;SDS011;18385;51.572;6.578;2022-11-20T08:51:17;21.55;;;9.50;;
31676;SDS011;18385;51.572;6.578;2022-11-20T08:53:44;23.02;;;9.85;;
31676;SDS011;18385;51.572;6.578;2022-11-20T08:56:10;19.13;;;8.52;;
31676;SDS011;18385;51.572;6.578;2022-11-20T08:58:37;21.23;;;10.15;;
31676;SDS011;18385;51.572;6.578;2022-11-20T09:01:03;24.25;;;10.35;;
31676;SDS011;18385;51.572;6.578;2022-11-20T09:03:29;26.75;;;11.50;;
31676;SDS011;18385;51.572;6.578;2022-11-20T09:06:02;21.85;;;10.23;;
31676;SDS011;18385;51.572;6.578;2022-11-20T09:08:30;22.80;;;10.52;;
31676;SDS011;18385;51.572;6.578;2022-11-20T09:10:56;30.23;;;12.48;;
31676;SDS011;18385;51.572;6.578;2022-11-20T09:13:23;27.73;;;12.48;;
31676;SDS011;18385;51.572;6.578;2022-11-20T09:15:57;25.10;;;12.18;;
31676;SDS011;18385;51.572;6.578;2022-11-20T09:18:33;26.55;;;12.35;;
31676;SDS011;18385;51.572;6.578;2022-11-20T09:21:02;29.25;;;13.73;;
31676;SDS011;18385;51.572;6.578;2022-11-20T09:23:33;23.35;;;10.80;;
31676;SDS011;18385;51.572;6.578;2022-11-20T09:26:10;24.52;;;12.15;;
31676;SDS011;18385;51.572;6.578;2022-11-20T09:28:37;26.35;;;12.48;;
31676;SDS011;18385;51.572;6.578;2022-11-20T09:31:06;31.52;;;13.40;;
31676;SDS011;18385;51.572;6.578;2022-11-20T09:33:33;31.73;;;13.05;;
31676;SDS011;18385;51.572;6.578;2022-11-20T09:35:58;29.35;;;12.70;;
31676;SDS011;18385;51.572;6.578;2022-11-20T09:38:24;25.38;;;11.40;;
31676;SDS011;18385;51.572;6.578;2022-11-20T09:40:55;26.80;;;12.73;;
31676;SDS011;18385;51.572;6.578;2022-11-20T09:43:32;26.35;;;12.43;;
31676;SDS011;18385;51.572;6.578;2022-11-20T09:46:21;27.38;;;11.25;;
31676;SDS011;18385;51.572;6.578;2022-11-20T09:51:51;29.77;;;11.52;;
31676;SDS011;18385;51.572;6.578;2022-11-20T09:54:21;25.80;;;11.90;;
31676;SDS011;18385;51.572;6.578;2022-11-20T09:56:53;29.50;;;12.90;;
31676;SDS011;18385;51.572;6.578;2022-11-20T09:59:28;23.23;;;11.40;;
31676;SDS011;18385;51.572;6.578;2022-11-20T10:02:41;24.13;;;11.40;;
31676;SDS011;18385;51.572;6.578;2022-11-20T10:05:10;28.35;;;13.05;;
31676;SDS011;18385;51.572;6.578;2022-11-20T10:10:52;23.15;;;11.63;;
31676;SDS011;18385;51.572;6.578;2022-11-20T10:13:40;25.25;;;11.88;;
31676;SDS011;18385;51.572;6.578;2022-11-20T10:16:56;23.95;;;11.88;;
31676;SDS011;18385;51.572;6.578;2022-11-20T10:24:55;24.73;;;11.60;;
31676;SDS011;18385;51.572;6.578;2022-11-20T10:27:34;25.08;;;11.88;;
31676;SDS011;18385;51.572;6.578;2022-11-20T10:32:36;28.90;;;13.00;;
31676;SDS011;18385;51.572;6.578;2022-11-20T10:35:05;27.00;;;12.18;;
31676;SDS011;18385;51.572;6.578;2022-11-20T10:37:42;24.42;;;10.95;;
31676;SDS011;18385;51.572;6.578;2022-11-20T10:42:45;24.65;;;11.43;;
31676;SDS011;18385;51.572;6.578;2022-11-20T10:45:21;21.63;;;10.48;;
31676;SDS011;18385;51.572;6.578;2022-11-20T10:47:54;24.83;;;11.98;;
31676;SDS011;18385;51.572;6.578;2022-11-20T10:50:34;24.50;;;10.82;;
31676;SDS011;18385;51.572;6.578;2022-11-20T10:53:05;26.88;;;11.88;;
31676;SDS011;18385;51.572;6.578;2022-11-20T10:55:45;24.00;;;10.95;;
31676;SDS011;18385;51.572;6.578;2022-11-20T10:58:24;21.92;;;10.52;;
31676;SDS011;18385;51.572;6.578;2022-11-20T11:01:03;26.45;;;12.38;;
31676;SDS011;18385;51.572;6.578;2022-11-20T11:03:43;31.42;;;13.32;;
31676;SDS011;18385;51.572;6.578;2022-11-20T11:06:23;25.80;;;12.23;;
31676;SDS011;18385;51.572;6.578;2022-11-20T11:11:27;23.15;;;10.23;;
31676;SDS011;18385;51.572;6.578;2022-11-20T11:14:07;27.92;;;10.55;;
31676;SDS011;18385;51.572;6.578;2022-11-20T11:16:40;22.38;;;9.30;;
31676;SDS011;18385;51.572;6.578;2022-11-20T11:19:18;24.00;;;10.80;;
31676;SDS011;18385;51.572;6.578;2022-11-20T11:21:53;20.98;;;10.50;;
31676;SDS011;18385;51.572;6.578;2022-11-20T11:24:25;24.63;;;10.98;;
31676;SDS011;18385;51.572;6.578;2022-11-20T11:26:59;29.67;;;11.50;;
31676;SDS011;18385;51.572;6.578;2022-11-20T11:29:35;20.77;;;10.48;;
31676;SDS011;18385;51.572;6.578;2022-11-20T11:32:08;24.25;;;11.13;;
31676;SDS011;18385;51.572;6.578;2022-11-20T11:34:38;37.38;;;15.20;;
31676;SDS011;18385;51.572;6.578;2022-11-20T11:37:03;28.08;;;13.05;;
31676;SDS011;18385;51.572;6.578;2022-11-20T11:39:30;24.60;;;11.57;;
31676;SDS011;18385;51.572;6.578;2022-11-20T11:41:58;24.38;;;11.35;;
31676;SDS011;18385;51.572;6.578;2022-11-20T11:44:32;25.02;;;10.38;;
31676;SDS011;18385;51.572;6.578;2022-11-20T11:47:21;24.13;;;11.70;;
31676;SDS011;18385;51.572;6.578;2022-11-20T11:55:26;29.88;;;12.15;;
31676;SDS011;18385;51.572;6.578;2022-11-20T12:00:57;24.88;;;11.10;;
31676;SDS011;18385;51.572;6.578;2022-11-20T12:03:29;26.55;;;11.30;;
31676;SDS011;18385;51.572;6.578;2022-11-20T12:06:10;27.45;;;11.57;;
31676;SDS011;18385;51.572;6.578;2022-11-20T12:11:20;26.30;;;11.52;;
31676;SDS011;18385;51.572;6.578;2022-11-20T12:14:01;24.55;;;11.15;;
31676;SDS011;18385;51.572;6.578;2022-11-20T12:16:35;24.95;;;11.48;;
31676;SDS011;18385;51.572;6.578;2022-11-20T12:19:03;23.92;;;10.98;;
31676;SDS011;18385;51.572;6.578;2022-11-20T12:21:45;29.08;;;12.93;;
31676;SDS011;18385;51.572;6.578;2022-11-20T12:29:56;28.88;;;12.40;;
31676;SDS011;18385;51.572;6.578;2022-11-20T12:32:35;32.38;;;13.25;;
31676;SDS011;18385;51.572;6.578;2022-11-20T12:52:46;31.60;;;12.75;;
31676;SDS011;18385;51.572;6.578;2022-11-20T12:56:18;35.28;;;16.95;;
31676;SDS011;18385;51.572;6.578;2022-11-20T13:01:32;31.85;;;13.43;;
31676;SDS011;18385;51.572;6.578;2022-11-20T13:04:16;39.22;;;15.20;;
31676;SDS011;18385;51.572;6.578;2022-11-20T13:06:56;35.45;;;12.75;;
31676;SDS011;18385;51.572;6.578;2022-11-20T13:09:23;34.45;;;13.73;;
31676;SDS011;18385;51.572;6.578;2022-11-20T13:12:06;27.15;;;11.90;;
31676;SDS011;18385;51.572;6.578;2022-11-20T13:17:14;40.55;;;16.00;;
31676;SDS011;18385;51.572;6.578;2022-11-20T13:19:52;27.67;;;10.90;;
31676;SDS011;18385;51.572;6.578;2022-11-20T13:22:26;34.65;;;13.77;;
31676;SDS011;18385;51.572;6.578;2022-11-20T13:24:53;36.05;;;13.68;;
31676;SDS011;18385;51.572;6.578;2022-11-20T13:27:23;35.55;;;13.93;;
31676;SDS011;18385;51.572;6.578;2022-11-20T13:30:11;29.90;;;11.15;;
31676;SDS011;18385;51.572;6.578;2022-11-20T13:35:32;32.05;;;12.48;;
31676;SDS011;18385;51.572;6.578;2022-11-20T13:38:01;30.63;;;13.68;;
31676;SDS011;18385;51.572;6.578;2022-11-20T13:40:33;30.45;;;12.73;;
31676;SDS011;18385;51.572;6.578;2022-11-20T13:43:11;29.13;;;11.25;;
31676;SDS011;18385;51.572;6.578;2022-11-20T13:45:59;26.75;;;10.95;;
31676;SDS011;18385;51.572;6.578;2022-11-20T13:48:29;29.95;;;11.63;;
31676;SDS011;18385;51.572;6.578;2022-11-20T13:51:20;30.25;;;11.98;;
31676;SDS011;18385;51.572;6.578;2022-11-20T13:59:28;36.20;;;15.38;;
31676;SDS011;18385;51.572;6.578;2022-11-20T14:02:10;33.67;;;13.65;;
31676;SDS011;18385;51.572;6.578;2022-11-20T14:04:48;26.52;;;11.30;;
31676;SDS011;18385;51.572;6.578;2022-11-20T14:07:16;26.63;;;11.00;;
31676;SDS011;18385;51.572;6.578;2022-11-20T14:09:51;26.40;;;12.15;;
31676;SDS011;18385;51.572;6.578;2022-11-20T14:12:27;27.40;;;12.07;;
31676;SDS011;18385;51.572;6.578;2022-11-20T14:14:54;28.60;;;11.88;;
31676;SDS011;18385;51.572;6.578;2022-11-20T14:17:24;31.45;;;12.48;;
31676;SDS011;18385;51.572;6.578;2022-11-20T14:19:54;28.23;;;11.30;;
31676;SDS011;18385;51.572;6.578;2022-11-20T14:22:25;29.23;;;12.40;;
31676;SDS011;18385;51.572;6.578;2022-11-20T14:25:03;29.88;;;11.02;;
31676;SDS011;18385;51.572;6.578;2022-11-20T14:27:42;32.70;;;12.25;;
31676;SDS011;18385;51.572;6.578;2022-11-20T14:30:12;31.73;;;11.93;;
31676;SDS011;18385;51.572;6.578;2022-11-20T14:32:44;28.85;;;12.05;;
31676;SDS011;18385;51.572;6.578;2022-11-20T14:35:27;30.60;;;12.65;;
31676;SDS011;18385;51.572;6.578;2022-11-20T14:37:54;34.75;;;12.70;;
31676;SDS011;18385;51.572;6.578;2022-11-20T14:40:31;35.47;;;12.88;;
31676;SDS011;18385;51.572;6.578;2022-11-20T14:43:00;31.08;;;11.85;;
31676;SDS011;18385;51.572;6.578;2022-11-20T14:45:27;35.80;;;12.38;;
31676;SDS011;18385;51.572;6.578;2022-11-20T14:47:54;38.13;;;13.38;;
31676;SDS011;18385;51.572;6.578;2022-11-20T14:50:26;32.15;;;12.52;;
31676;SDS011;18385;51.572;6.578;2022-11-20T14:52:54;30.80;;;12.60;;
31676;SDS011;18385;51.572;6.578;2022-11-20T14:55:25;27.40;;;11.65;;
31676;SDS011;18385;51.572;6.578;2022-11-20T14:58:05;30.02;;;11.93;;
31676;SDS011;18385;51.572;6.578;2022-11-20T15:00:33;30.08;;;12.48;;
31676;SDS011;18385;51.572;6.578;2022-11-20T15:02:59;35.63;;;13.52;;
31676;SDS011;18385;51.572;6.578;2022-11-20T15:05:26;31.60;;;12.02;;
31676;SDS011;18385;51.572;6.578;2022-11-20T15:08:15;30.13;;;12.35;;
31676;SDS011;18385;51.572;6.578;2022-11-20T15:10:50;33.58;;;12.35;;
31676;SDS011;18385;51.572;6.578;2022-11-20T15:16:01;28.35;;;12.38;;
31676;SDS011;18385;51.572;6.578;2022-11-20T15:18:30;27.80;;;11.75;;
31676;SDS011;18385;51.572;6.578;2022-11-20T15:21:02;32.15;;;11.77;;
31676;SDS011;18385;51.572;6.578;2022-11-20T15:23:29;32.05;;;11.88;;
31676;SDS011;18385;51.572;6.578;2022-11-20T15:25:55;30.63;;;13.00;;
31676;SDS011;18385;51.572;6.578;2022-11-20T15:28:34;33.03;;;12.13;;
31676;SDS011;18385;51.572;6.578;2022-11-20T15:31:02;29.92;;;12.80;;
31676;SDS011;18385;51.572;6.578;2022-11-20T15:33:29;28.92;;;11.80;;
31676;SDS011;18385;51.572;6.578;2022-11-20T15:35:56;30.08;;;12.65;;
31676;SDS011;18385;51.572;6.578;2022-11-20T15:38:22;31.10;;;12.55;;
31676;SDS011;18385;51.572;6.578;2022-11-20T15:40:48;30.92;;;12.35;;
31676;SDS011;18385;51.572;6.578;2022-11-20T15:43:14;27.00;;;11.15;;
31676;SDS011;18385;51.572;6.578;2022-11-20T15:45:44;31.58;;;12.30;;
31676;SDS011;18385;51.572;6.578;2022-11-20T15:48:15;26.02;;;11.55;;
31676;SDS011;18385;51.572;6.578;2022-11-20T15:50:51;34.45;;;13.65;;
31676;SDS011;18385;51.572;6.578;2022-11-20T15:53:20;30.42;;;12.80;;
31676;SDS011;18385;51.572;6.578;2022-11-20T15:55:46;34.15;;;12.02;;
31676;SDS011;18385;51.572;6.578;2022-11-20T15:58:12;33.00;;;12.75;;
31676;SDS011;18385;51.572;6.578;2022-11-20T16:00:38;27.55;;;12.05;;
31676;SDS011;18385;51.572;6.578;2022-11-20T16:03:03;28.02;;;12.57;;
31676;SDS011;18385;51.572;6.578;2022-11-20T16:05:29;33.33;;;12.15;;
31676;SDS011;18385;51.572;6.578;2022-11-20T16:07:55;30.45;;;12.25;;
31676;SDS011;18385;51.572;6.578;2022-11-20T16:10:21;32.67;;;12.05;;
31676;SDS011;18385;51.572;6.578;2022-11-20T16:12:47;32.25;;;12.32;;